createdAt,value
2022-10-24T00:01:12.086Z,97933.81
2022-10-24T00:03:39.284Z,97937.19
2022-10-24T00:06:08.130Z,97935.50
2022-10-24T00:08:36.306Z,97933.06
2022-10-24T00:11:08.993Z,97927.06
2022-10-24T00:13:35.686Z,97930.56
2022-10-24T00:16:02.341Z,97931.00
2022-10-24T00:18:29.227Z,97932.28
2022-10-24T00:20:56.070Z,97932.25
2022-10-24T00:23:22.913Z,97934.25
2022-10-24T00:25:49.592Z,97941.72
2022-10-24T00:28:16.271Z,97937.66
2022-10-24T00:30:42.877Z,97937.69
2022-10-24T00:33:09.536Z,97936.47
2022-10-24T00:35:36.155Z,97941.44
2022-10-24T00:38:02.822Z,97943.34
2022-10-24T00:40:29.474Z,97949.50
2022-10-24T00:42:56.255Z,97947.25
2022-10-24T00:45:44.871Z,97956.72
2022-10-24T00:48:43.022Z,97960.63
2022-10-24T00:51:18.837Z,97948.31
2022-10-24T00:53:48.103Z,97956.53
2022-10-24T00:56:17.158Z,97954.03
2022-10-24T00:58:44.963Z,97950.56
2022-10-24T01:01:12.986Z,97962.75
2022-10-24T01:03:39.881Z,97964.19
2022-10-24T01:06:21.666Z,97963.00
2022-10-24T01:08:58.306Z,97960.53
2022-10-24T01:11:37.975Z,97955.56
2022-10-24T01:14:23.408Z,97950.28
2022-10-24T01:17:16.486Z,97951.75
2022-10-24T01:20:22.859Z,97958.97
2022-10-24T01:23:03.794Z,97967.84
2022-10-24T01:26:02.899Z,97963.25
2022-10-24T01:29:00.259Z,97962.59
2022-10-24T01:31:40.967Z,97957.22
2022-10-24T01:34:11.949Z,97954.34
2022-10-24T01:36:51.840Z,97945.66
2022-10-24T01:39:20.484Z,97955.97
2022-10-24T01:41:47.897Z,97954.97
2022-10-24T01:44:27.750Z,97958.47
2022-10-24T01:47:09.000Z,97958.91
2022-10-24T01:49:37.428Z,97953.16
2022-10-24T01:52:08.733Z,97951.94
2022-10-24T01:54:37.548Z,97950.69
2022-10-24T01:57:05.558Z,97950.28
2022-10-24T01:59:32.064Z,97955.19
2022-10-24T02:02:11.365Z,97954.63
2022-10-24T02:04:42.109Z,97952.13
2022-10-24T02:07:10.365Z,97952.56
2022-10-24T02:09:38.957Z,97950.69
2022-10-24T02:12:09.200Z,97944.50
2022-10-24T02:14:43.095Z,97945.69
2022-10-24T02:17:11.169Z,97957.47
2022-10-24T02:19:38.360Z,97963.22
2022-10-24T02:22:15.796Z,97956.06
2022-10-24T02:24:48.150Z,97950.31
2022-10-24T02:27:18.814Z,97951.75
2022-10-24T02:29:51.065Z,97933.84
2022-10-24T02:32:23.542Z,97938.38
2022-10-24T02:34:50.113Z,97938.16
2022-10-24T02:37:17.473Z,97934.84
2022-10-24T02:39:46.774Z,97923.56
2022-10-24T02:42:14.864Z,97924.16
2022-10-24T02:44:42.643Z,97910.78
2022-10-24T02:47:11.915Z,97907.06
2022-10-24T02:49:38.792Z,97907.22
2022-10-24T02:52:06.311Z,97894.25
2022-10-24T02:54:33.103Z,97900.00
2022-10-24T02:57:04.255Z,97892.81
2022-10-24T02:59:30.988Z,97886.25
2022-10-24T03:01:57.898Z,97883.56
2022-10-24T03:04:24.586Z,97886.63
2022-10-24T03:06:51.314Z,97897.94
2022-10-24T03:09:17.993Z,97900.63
2022-10-24T03:11:44.621Z,97905.78
2022-10-24T03:14:11.784Z,97907.03
2022-10-24T03:16:38.659Z,97911.56
2022-10-24T03:19:05.386Z,97916.50
2022-10-24T03:21:32.042Z,97929.47
2022-10-24T03:23:58.724Z,97924.94
2022-10-24T03:26:25.356Z,97924.53
2022-10-24T03:28:51.965Z,97920.44
2022-10-24T03:31:18.659Z,97922.28
2022-10-24T03:33:45.680Z,97919.59
2022-10-24T03:36:12.400Z,97925.53
2022-10-24T03:38:39.119Z,97943.28
2022-10-24T03:41:05.895Z,97947.59
2022-10-24T03:43:32.862Z,97936.28
2022-10-24T03:45:59.755Z,97931.19
2022-10-24T03:48:26.753Z,97922.56
2022-10-24T03:50:53.457Z,97919.88
2022-10-24T03:53:20.135Z,97908.34
2022-10-24T03:55:46.793Z,97920.31
2022-10-24T03:58:13.957Z,97913.50
2022-10-24T04:00:41.697Z,97919.28
2022-10-24T04:03:09.915Z,97922.34
2022-10-24T04:05:36.800Z,97919.69
2022-10-24T04:08:03.791Z,97922.38
2022-10-24T04:10:30.510Z,97929.78
2022-10-24T04:12:57.233Z,97925.25
2022-10-24T04:15:24.348Z,97935.09
2022-10-24T04:17:51.056Z,97933.25
2022-10-24T04:20:22.420Z,97940.84
2022-10-24T04:22:49.385Z,97936.09
2022-10-24T04:25:16.670Z,97933.59
2022-10-24T04:27:43.340Z,97930.31
2022-10-24T04:30:16.620Z,97931.34
2022-10-24T04:32:44.147Z,97930.94
2022-10-24T04:35:11.279Z,97929.47
2022-10-24T04:37:38.025Z,97929.25
2022-10-24T04:40:05.169Z,97917.75
2022-10-24T04:42:31.775Z,97920.00
2022-10-24T04:44:58.405Z,97911.75
2022-10-24T04:47:25.052Z,97911.97
2022-10-24T04:49:51.849Z,97915.84
2022-10-24T04:52:18.515Z,97926.78
2022-10-24T04:54:45.170Z,97914.81
2022-10-24T04:57:11.818Z,97913.59
2022-10-24T04:59:38.556Z,97917.09
2022-10-24T05:02:05.218Z,97920.59
2022-10-24T05:04:31.929Z,97916.06
2022-10-24T05:06:58.708Z,97919.34
2022-10-24T05:09:25.584Z,97925.53
2022-10-24T05:11:54.768Z,97931.72
2022-10-24T05:14:25.303Z,97928.03
2022-10-24T05:16:52.128Z,97932.34
2022-10-24T05:19:19.741Z,97931.06
2022-10-24T05:21:46.759Z,97922.66
2022-10-24T05:24:13.442Z,97917.91
2022-10-24T05:26:40.163Z,97920.00
2022-10-24T05:31:34.531Z,97933.13
2022-10-24T05:34:01.252Z,97929.84
2022-10-24T05:36:28.028Z,97943.22
2022-10-24T05:38:54.680Z,97944.69
2022-10-24T05:41:21.365Z,97957.25
2022-10-24T05:43:47.949Z,97967.75
2022-10-24T05:46:14.642Z,97973.09
2022-10-24T05:48:41.310Z,97972.50
2022-10-24T05:51:07.998Z,97973.09
2022-10-24T05:53:34.637Z,97977.66
2022-10-24T05:56:01.351Z,97977.88
2022-10-24T05:58:28.047Z,97978.53
2022-10-24T06:00:54.714Z,97979.16
2022-10-24T06:03:22.025Z,97976.06
2022-10-24T06:05:49.361Z,97969.88
2022-10-24T06:08:16.212Z,97975.25
2022-10-24T06:10:46.905Z,97980.41
2022-10-24T06:13:13.832Z,97995.00
2022-10-24T06:15:44.734Z,98011.25
2022-10-24T06:18:11.359Z,98026.38
2022-10-24T06:20:38.068Z,98012.81
2022-10-24T06:23:04.737Z,98016.47
2022-10-24T06:25:31.417Z,98030.44
2022-10-24T06:27:58.041Z,98044.78
2022-10-24T06:30:24.696Z,98048.06
2022-10-24T06:32:51.517Z,98040.63
2022-10-24T06:35:19.276Z,98035.09
2022-10-24T06:37:48.213Z,98029.31
2022-10-24T06:40:16.540Z,98028.09
2022-10-24T06:42:43.189Z,98026.28
2022-10-24T06:45:09.873Z,98035.31
2022-10-24T06:47:36.659Z,98039.22
2022-10-24T06:50:03.834Z,98031.38
2022-10-24T06:52:30.593Z,98032.19
2022-10-24T06:54:57.168Z,98036.78
2022-10-24T06:57:23.887Z,98053.59
2022-10-24T06:59:50.561Z,98057.31
2022-10-24T07:02:17.462Z,98049.09
2022-10-24T07:04:44.309Z,98052.78
2022-10-24T07:07:18.982Z,98056.50
2022-10-24T07:09:46.055Z,98055.69
2022-10-24T07:12:12.731Z,98069.63
2022-10-24T07:14:39.410Z,98089.09
2022-10-24T07:17:06.104Z,98098.69
2022-10-24T07:19:36.454Z,98065.41
2022-10-24T07:22:04.299Z,98073.63
2022-10-24T07:24:31.407Z,98073.25
2022-10-24T07:26:58.065Z,98078.81
2022-10-24T07:29:24.769Z,98086.59
2022-10-24T07:31:51.664Z,98089.47
2022-10-24T07:34:18.565Z,98081.06
2022-10-24T07:36:45.269Z,98067.13
2022-10-24T07:39:12.757Z,98068.34
2022-10-24T07:41:41.349Z,98065.31
2022-10-24T07:44:08.932Z,98063.69
2022-10-24T07:46:35.601Z,98062.66
2022-10-24T07:49:02.192Z,98055.28
2022-10-24T07:51:29.842Z,98046.91
2022-10-24T07:53:58.057Z,98061.06
2022-10-24T07:56:25.113Z,98063.97
2022-10-24T07:58:51.748Z,98050.13
2022-10-24T08:01:23.753Z,98049.66
2022-10-24T08:03:50.653Z,98059.75
2022-10-24T08:06:20.804Z,98069.22
2022-10-24T08:08:47.717Z,98070.38
2022-10-24T08:11:16.791Z,98075.94
2022-10-24T08:13:43.473Z,98080.00
2022-10-24T08:16:12.305Z,98074.47
2022-10-24T08:18:40.131Z,98082.38
2022-10-24T08:21:13.072Z,98079.13
2022-10-24T08:23:41.960Z,98065.31
2022-10-24T08:26:10.284Z,98052.69
2022-10-24T08:28:36.909Z,98041.97
2022-10-24T08:31:07.263Z,98020.59
2022-10-24T08:33:35.345Z,98002.28
2022-10-24T08:36:06.043Z,98014.94
2022-10-24T08:38:32.713Z,98025.50
2022-10-24T08:41:00.282Z,98037.81
2022-10-24T08:43:26.917Z,98048.38
2022-10-24T08:46:02.452Z,98048.84
2022-10-24T08:48:57.252Z,98044.59
2022-10-24T08:51:28.891Z,98059.63
2022-10-24T08:53:57.994Z,98053.88
2022-10-24T08:56:28.979Z,98059.22
2022-10-24T08:58:55.995Z,98069.03
2022-10-24T09:01:37.913Z,98054.41
2022-10-24T09:04:07.683Z,98056.03
2022-10-24T09:06:34.433Z,98045.78
2022-10-24T09:09:04.021Z,98045.94
2022-10-24T09:11:30.950Z,98049.84
2022-10-24T09:14:00.461Z,98055.00
2022-10-24T09:16:27.746Z,98056.69
2022-10-24T09:18:55.906Z,98053.84
2022-10-24T09:21:22.917Z,98062.44
2022-10-24T09:23:50.909Z,98086.09
2022-10-24T09:26:29.218Z,98098.28
2022-10-24T09:28:57.090Z,98104.06
2022-10-24T09:31:25.338Z,98107.13
2022-10-24T09:33:52.826Z,98110.22
2022-10-24T09:36:21.318Z,98112.06
2022-10-24T09:38:49.183Z,98112.25
2022-10-24T09:41:18.001Z,98112.66
2022-10-24T09:43:44.541Z,98114.88
2022-10-24T09:46:14.222Z,98110.97
2022-10-24T09:49:00.976Z,98097.00
2022-10-24T09:51:33.433Z,98100.72
2022-10-24T09:54:05.387Z,98094.38
2022-10-24T09:56:41.074Z,98090.41
2022-10-24T09:59:23.206Z,98084.88
2022-10-24T10:01:49.896Z,98084.91
2022-10-24T10:04:18.329Z,98086.78
2022-10-24T10:06:49.997Z,98082.88
2022-10-24T10:09:24.848Z,98091.66
2022-10-24T10:12:05.807Z,98094.97
2022-10-24T10:14:33.086Z,98099.09
2022-10-24T10:17:01.726Z,98090.69
2022-10-24T10:19:28.754Z,98099.72
2022-10-24T10:22:02.025Z,98086.81
2022-10-24T10:24:43.365Z,98094.19
2022-10-24T10:27:33.030Z,98092.59
2022-10-24T10:30:25.705Z,98089.28
2022-10-24T10:33:14.323Z,98073.25
2022-10-24T10:35:46.911Z,98081.06
2022-10-24T10:38:50.190Z,98082.09
2022-10-24T10:41:32.496Z,98077.78
2022-10-24T10:44:30.070Z,98069.59
2022-10-24T10:47:06.330Z,98079.84
2022-10-24T10:49:39.951Z,98074.94
2022-10-24T10:52:12.241Z,98079.28
2022-10-24T10:54:47.901Z,98076.63
2022-10-24T10:57:25.499Z,98095.91
2022-10-24T11:00:03.348Z,98094.91
2022-10-24T11:02:59.354Z,98103.78
2022-10-24T11:05:51.359Z,98115.06
2022-10-24T11:08:31.900Z,98097.78
2022-10-24T11:11:03.534Z,98106.22
2022-10-24T11:13:34.838Z,98105.59
2022-10-24T11:16:06.128Z,98112.34
2022-10-24T11:18:35.702Z,98103.16
2022-10-24T11:21:13.893Z,98116.06
2022-10-24T11:23:57.989Z,98114.84
2022-10-24T11:26:54.015Z,98120.59
2022-10-24T11:29:39.484Z,98123.47
2022-10-24T11:32:19.413Z,98122.25
2022-10-24T11:34:52.997Z,98120.59
2022-10-24T11:37:28.085Z,98114.63
2022-10-24T11:39:57.915Z,98108.50
2022-10-24T11:42:48.107Z,98097.56
2022-10-24T11:45:20.433Z,98102.28
2022-10-24T11:48:05.958Z,98091.00
2022-10-24T11:50:44.272Z,98083.19
2022-10-24T11:53:10.806Z,98082.41
2022-10-24T11:55:39.199Z,98082.00
2022-10-24T11:58:13.504Z,98082.00
2022-10-24T12:01:02.436Z,98082.19
2022-10-24T12:03:48.036Z,98075.63
2022-10-24T12:06:22.809Z,98071.69
2022-10-24T12:09:16.725Z,98071.31
2022-10-24T12:12:19.156Z,98072.53
2022-10-24T12:15:07.659Z,98060.22
2022-10-24T12:17:41.401Z,98060.78
2022-10-24T12:20:14.894Z,98057.06
2022-10-24T12:22:43.224Z,98051.09
2022-10-24T12:25:47.207Z,98052.34
2022-10-24T12:28:23.261Z,98052.94
2022-10-24T12:31:10.176Z,98062.63
2022-10-24T12:33:36.982Z,98055.66
2022-10-24T12:36:03.815Z,98055.84
2022-10-24T12:38:30.366Z,98051.75
2022-10-24T12:41:06.830Z,98054.66
2022-10-24T12:43:51.344Z,98049.69
2022-10-24T12:46:23.145Z,98045.41
2022-10-24T12:48:59.524Z,98047.00
2022-10-24T12:51:33.165Z,98049.91
2022-10-24T12:54:02.838Z,98057.13
2022-10-24T12:56:33.707Z,98053.41
2022-10-24T12:59:19.208Z,98074.97
2022-10-24T13:01:47.412Z,98074.59
2022-10-24T13:07:59.079Z,98065.53
2022-10-24T13:10:47.879Z,98078.03
2022-10-24T13:13:56.823Z,98073.31
2022-10-24T13:16:38.313Z,98071.28
2022-10-24T13:19:22.080Z,98061.22
2022-10-24T13:21:51.444Z,98057.50
2022-10-24T13:24:19.896Z,98057.09
2022-10-24T13:26:48.819Z,98052.16
2022-10-24T13:29:21.424Z,98054.44
2022-10-24T13:31:52.793Z,98057.06
2022-10-24T13:34:22.192Z,98064.69
2022-10-24T13:36:52.430Z,98074.75
2022-10-24T13:39:23.895Z,98070.03
2022-10-24T13:41:58.056Z,98071.47
2022-10-24T13:44:30.670Z,98061.97
2022-10-24T13:47:25.652Z,98067.53
2022-10-24T13:50:15.408Z,98083.41
2022-10-24T13:52:44.556Z,98086.09
2022-10-24T13:55:22.300Z,98082.56
2022-10-24T13:57:56.189Z,98081.75
2022-10-24T14:00:26.982Z,98080.75
2022-10-24T14:02:54.815Z,98077.63
2022-10-24T14:05:29.916Z,98083.56
2022-10-24T14:07:57.971Z,98089.78
2022-10-24T14:10:25.122Z,98096.34
2022-10-24T14:12:57.044Z,98095.94
2022-10-24T14:15:30.450Z,98090.59
2022-10-24T14:17:58.368Z,98090.59
2022-10-24T14:20:33.605Z,98093.06
2022-10-24T14:23:00.781Z,98087.28
2022-10-24T14:25:37.829Z,98086.06
2022-10-24T14:28:17.949Z,98088.94
2022-10-24T14:30:58.958Z,98075.78
2022-10-24T14:33:30.110Z,98078.25
2022-10-24T14:35:59.176Z,98086.50
2022-10-24T14:38:27.110Z,98084.03
2022-10-24T14:41:07.939Z,98084.03
2022-10-24T14:43:37.327Z,98085.28
2022-10-24T14:46:10.077Z,98084.44
2022-10-24T14:48:37.324Z,98080.34
2022-10-24T14:51:08.974Z,98079.13
2022-10-24T14:53:37.345Z,98081.56
2022-10-24T14:56:05.205Z,98080.94
2022-10-24T14:58:33.573Z,98091.41
2022-10-24T15:01:00.362Z,98088.56
2022-10-24T15:03:28.810Z,98084.66
2022-10-24T15:06:10.462Z,98088.75
2022-10-24T15:08:39.591Z,98083.00
2022-10-24T15:11:17.053Z,98089.59
2022-10-24T15:14:00.028Z,98086.31
2022-10-24T15:16:38.975Z,98086.13
2022-10-24T15:19:14.947Z,98079.94
2022-10-24T15:21:44.360Z,98084.03
2022-10-24T15:24:25.274Z,98076.03
2022-10-24T15:27:09.458Z,98083.63
2022-10-24T15:29:36.100Z,98084.03
2022-10-24T15:32:02.812Z,98088.78
2022-10-24T15:34:32.812Z,98091.63
2022-10-24T15:37:07.248Z,98090.41
2022-10-24T15:39:36.509Z,98096.16
2022-10-24T15:42:06.563Z,98101.91
2022-10-24T15:44:35.353Z,98109.50
2022-10-24T15:47:01.997Z,98114.44
2022-10-24T15:49:29.086Z,98111.94
2022-10-24T15:51:56.387Z,98115.81
2022-10-24T15:54:23.317Z,98126.50
2022-10-24T15:56:59.444Z,98127.31
2022-10-24T15:59:28.742Z,98124.81
2022-10-24T16:01:58.352Z,98121.53
2022-10-24T16:04:25.049Z,98113.09
2022-10-24T16:06:52.375Z,98092.56
2022-10-24T16:09:23.005Z,98102.66
2022-10-24T16:11:56.849Z,98099.75
2022-10-24T16:14:26.247Z,98108.34
2022-10-24T16:16:55.156Z,98109.19
2022-10-24T16:19:22.772Z,98113.28
2022-10-24T16:21:49.645Z,98119.84
2022-10-24T16:24:16.413Z,98106.09
2022-10-24T16:26:43.035Z,98103.84
2022-10-24T16:29:10.188Z,98108.94
2022-10-24T16:31:39.851Z,98118.41
2022-10-24T16:34:07.442Z,98127.88
2022-10-24T16:36:34.147Z,98130.59
2022-10-24T16:39:00.791Z,98146.00
2022-10-24T16:41:27.503Z,98146.84
2022-10-24T16:43:56.239Z,98147.47
2022-10-24T16:46:23.821Z,98143.13
2022-10-24T16:48:50.706Z,98140.63
2022-10-24T16:51:21.266Z,98146.34
2022-10-24T16:53:47.920Z,98159.97
2022-10-24T16:56:15.719Z,98149.28
2022-10-24T16:58:42.871Z,98156.19
2022-10-24T17:01:11.986Z,98163.56
2022-10-24T17:03:39.323Z,98157.19
2022-10-24T17:06:06.783Z,98177.50
2022-10-24T17:08:33.750Z,98174.19
2022-10-24T17:11:00.949Z,98167.06
2022-10-24T17:13:28.107Z,98161.88
2022-10-24T17:15:54.821Z,98154.28
2022-10-24T17:18:23.511Z,98152.44
2022-10-24T17:20:50.341Z,98161.47
2022-10-24T17:23:20.825Z,98162.91
2022-10-24T17:25:47.954Z,98163.91
2022-10-24T17:28:16.180Z,98178.22
2022-10-24T17:30:43.779Z,98173.88
2022-10-24T17:33:11.293Z,98182.66
2022-10-24T17:35:41.905Z,98192.50
2022-10-24T17:38:26.813Z,98189.66
2022-10-24T17:40:54.841Z,98186.91
2022-10-24T17:43:23.884Z,98191.66
2022-10-24T17:45:50.707Z,98189.09
2022-10-24T17:48:17.859Z,98188.00
2022-10-24T17:50:45.273Z,98196.69
2022-10-24T17:53:17.018Z,98188.66
2022-10-24T17:55:46.701Z,98185.75
2022-10-24T17:58:14.719Z,98190.88
2022-10-24T18:00:41.487Z,98201.66
2022-10-24T18:03:11.082Z,98204.19
2022-10-24T18:05:38.550Z,98219.00
2022-10-24T18:08:07.205Z,98211.56
2022-10-24T18:10:33.990Z,98208.25
2022-10-24T18:13:00.784Z,98240.91
2022-10-24T18:15:27.579Z,98318.88
2022-10-24T18:17:54.218Z,98377.66
2022-10-24T18:20:21.096Z,98393.94
2022-10-24T18:22:48.026Z,98426.44
2022-10-24T18:25:20.223Z,98399.22
2022-10-24T18:27:49.645Z,98386.56
2022-10-24T18:30:19.715Z,98389.59
2022-10-24T18:32:47.394Z,98384.00
2022-10-24T18:35:14.483Z,98376.38
2022-10-24T18:37:41.319Z,98370.38
2022-10-24T18:40:09.541Z,98366.09
2022-10-24T18:42:54.413Z,98363.38
2022-10-24T18:45:26.583Z,98352.09
2022-10-24T18:47:54.050Z,98338.63
2022-10-24T18:50:24.623Z,98329.78
2022-10-24T18:53:06.712Z,98313.81
2022-10-24T18:55:34.680Z,98316.25
2022-10-24T18:58:02.138Z,98317.22
2022-10-24T19:00:31.007Z,98315.69
2022-10-24T19:03:18.738Z,98321.00
2022-10-24T19:05:51.931Z,98324.38
2022-10-24T19:08:23.733Z,98324.47
2022-10-24T19:10:56.150Z,98333.31
2022-10-24T19:13:24.704Z,98339.59
2022-10-24T19:16:00.237Z,98333.06
2022-10-24T19:18:28.861Z,98320.59
2022-10-24T19:20:55.970Z,98313.13
2022-10-24T19:23:23.737Z,98299.69
2022-10-24T19:25:51.038Z,98322.56
2022-10-24T19:28:19.356Z,98339.03
2022-10-24T19:30:46.531Z,98335.19
2022-10-24T19:33:14.466Z,98327.78
2022-10-24T19:35:47.202Z,98329.84
2022-10-24T19:38:15.006Z,98323.19
2022-10-24T19:40:52.905Z,98312.38
2022-10-24T19:43:23.482Z,98289.19
2022-10-24T19:46:07.221Z,98286.91
2022-10-24T19:48:37.299Z,98282.56
2022-10-24T19:51:10.882Z,98292.31
2022-10-24T19:53:39.793Z,98295.56
2022-10-24T19:56:09.214Z,98297.06
2022-10-24T19:58:36.943Z,98281.63
2022-10-24T20:01:08.730Z,98287.47
2022-10-24T20:03:36.742Z,98282.88
2022-10-24T20:06:03.576Z,98285.06
2022-10-24T20:08:30.260Z,98285.41
2022-10-24T20:10:56.902Z,98298.81
2022-10-24T20:13:23.597Z,98305.72
2022-10-24T20:16:00.968Z,98305.91
2022-10-24T20:18:28.365Z,98333.75
2022-10-24T20:20:55.248Z,98333.41
2022-10-24T20:23:22.688Z,98344.13
2022-10-24T20:25:50.195Z,98351.69
2022-10-24T20:28:17.113Z,98357.91
2022-10-24T20:30:46.903Z,98362.63
2022-10-24T20:33:14.897Z,98372.25
2022-10-24T20:35:42.887Z,98375.56
2022-10-24T20:38:09.808Z,98381.47
2022-10-24T20:40:36.580Z,98379.59
2022-10-24T20:43:04.726Z,98366.47
2022-10-24T20:45:34.190Z,98393.78
2022-10-24T20:48:01.538Z,98382.84
2022-10-24T20:50:28.305Z,98385.69
2022-10-24T20:52:55.217Z,98381.03
2022-10-24T20:55:39.254Z,98376.38
2022-10-24T20:58:12.142Z,98389.84
2022-10-24T21:00:38.774Z,98369.75
2022-10-24T21:03:05.452Z,98386.00
2022-10-24T21:05:34.912Z,98377.38
2022-10-24T21:08:01.617Z,98368.38
2022-10-24T21:10:28.274Z,98373.78
2022-10-24T21:12:55.269Z,98376.75
2022-10-24T21:15:22.047Z,98376.41
2022-10-24T21:17:48.946Z,98392.19
2022-10-24T21:20:15.869Z,98386.22
2022-10-24T21:22:42.620Z,98385.38
2022-10-24T21:25:09.689Z,98384.72
2022-10-24T21:27:36.274Z,98390.56
2022-10-24T21:30:03.080Z,98388.44
2022-10-24T21:32:29.680Z,98398.63
2022-10-24T21:34:56.252Z,98402.00
2022-10-24T21:37:22.831Z,98396.53
2022-10-24T21:39:49.452Z,98408.44
2022-10-24T21:42:16.148Z,98400.13
2022-10-24T21:44:42.837Z,98405.81
2022-10-24T21:47:09.505Z,98400.72
2022-10-24T21:49:36.112Z,98396.41
2022-10-24T21:52:02.793Z,98393.44
2022-10-24T21:54:29.882Z,98396.91
2022-10-24T21:56:59.802Z,98398.59
2022-10-24T21:59:26.473Z,98403.75
2022-10-24T22:01:53.576Z,98401.44
2022-10-24T22:04:20.676Z,98399.41
2022-10-24T22:06:47.435Z,98407.22
2022-10-24T22:09:17.347Z,98400.09
2022-10-24T22:11:44.803Z,98395.13
2022-10-24T22:14:13.964Z,98415.72
2022-10-24T22:16:41.131Z,98405.41
2022-10-24T22:19:08.133Z,98419.50
2022-10-24T22:21:36.024Z,98417.69
2022-10-24T22:26:32.318Z,98414.72
2022-10-24T22:28:59.048Z,98415.06
2022-10-24T22:31:27.889Z,98418.34
2022-10-24T22:33:55.777Z,98413.41
2022-10-24T22:36:41.196Z,98418.22
2022-10-24T22:39:16.856Z,98416.75
2022-10-24T22:41:44.667Z,98419.41
2022-10-24T22:44:12.782Z,98431.53
2022-10-24T22:47:16.844Z,98433.69
2022-10-24T22:49:54.278Z,98428.72
2022-10-24T22:52:21.235Z,98430.38
2022-10-24T22:54:48.106Z,98427.25
2022-10-24T22:57:14.936Z,98428.91
2022-10-24T22:59:41.858Z,98434.72
2022-10-24T23:02:23.899Z,98433.88
2022-10-24T23:04:59.966Z,98436.41
2022-10-24T23:07:41.986Z,98432.59
2022-10-24T23:10:16.489Z,98437.38
2022-10-24T23:12:43.486Z,98439.72
2022-10-24T23:15:13.610Z,98436.03
2022-10-24T23:17:40.806Z,98432.56
2022-10-24T23:20:19.844Z,98441.66
2022-10-24T23:22:54.271Z,98449.63
2022-10-24T23:25:30.257Z,98446.16
2022-10-24T23:28:15.283Z,98445.81
2022-10-24T23:30:42.171Z,98443.00
2022-10-24T23:33:13.743Z,98445.47
2022-10-24T23:35:40.606Z,98441.31
2022-10-24T23:38:09.588Z,98442.16
2022-10-24T23:40:36.667Z,98447.78
2022-10-24T23:43:04.488Z,98440.66
2022-10-24T23:45:54.167Z,98442.81
2022-10-24T23:48:39.550Z,98445.66
2022-10-24T23:51:13.836Z,98449.66
2022-10-24T23:53:50.067Z,98453.97
2022-10-24T23:56:25.675Z,98454.78
2022-10-24T23:58:52.679Z,98451.16
